Time;durP1;ratioP1;P1;durP2;ratioP2;P2;SDS_P1;SDS_P2;PMS_P1;PMS_P2;Temp;Humidity;BMP_temperature;BMP_pressure;BME280_temperature;BME280_humidity;BME280_pressure;Samples;Min_cycle;Max_cycle;Signal;HPM_P1;HPM_P2
2021/01/09 00:01:48;;;;;;;16.10;13.80;;;1.10;99.90;;;;;;5034708;28;20486;-47
2021/01/09 00:04:13;;;;;;;16.63;14.03;;;1.10;99.90;;;;;;5036125;28;20835;-45
2021/01/09 00:06:40;;;;;;;18.10;14.60;;;1.10;99.90;;;;;;5036042;28;20214;-45
2021/01/09 00:09:07;;;;;;;19.10;15.20;;;1.10;99.90;;;;;;5037212;28;20703;-48
2021/01/09 00:11:33;;;;;;;17.97;14.70;;;1.20;99.90;;;;;;5036077;28;20435;-47
2021/01/09 00:13:58;;;;;;;18.23;15.13;;;1.30;99.90;;;;;;5032330;28;20434;-49
2021/01/09 00:16:24;;;;;;;18.57;15.50;;;1.30;99.90;;;;;;5025024;28;20465;-46
2021/01/09 00:18:51;;;;;;;17.17;14.63;;;1.20;99.90;;;;;;5032304;28;20187;-45
2021/01/09 00:21:17;;;;;;;17.40;14.63;;;1.10;99.90;;;;;;5032234;28;20208;-46
2021/01/09 00:23:43;;;;;;;18.07;14.77;;;1.20;99.90;;;;;;5035493;28;20441;-46
2021/01/09 00:26:08;;;;;;;19.10;15.50;;;1.10;99.90;;;;;;5035693;28;20178;-51
2021/01/09 00:28:34;;;;;;;17.83;15.27;;;1.10;99.90;;;;;;5033856;28;20200;-48
2021/01/09 00:30:59;;;;;;;19.43;15.40;;;1.10;99.90;;;;;;5034968;28;20191;-51
2021/01/09 00:33:25;;;;;;;17.77;14.60;;;1.20;99.90;;;;;;5034618;28;20180;-46
2021/01/09 00:35:53;;;;;;;17.60;14.67;;;1.30;99.90;;;;;;5036309;28;20176;-50
2021/01/09 00:38:18;;;;;;;19.13;15.30;;;1.30;99.90;;;;;;5035254;28;20703;-45
2021/01/09 00:40:44;;;;;;;18.33;15.17;;;1.30;99.90;;;;;;5034304;28;20481;-50
2021/01/09 00:43:10;;;;;;;20.17;16.00;;;1.30;99.90;;;;;;5034337;28;20198;-51
2021/01/09 00:45:35;;;;;;;18.77;15.27;;;1.20;99.90;;;;;;5035290;28;20207;-47
2021/01/09 00:48:01;;;;;;;18.03;13.83;;;1.20;99.90;;;;;;5033784;28;20635;-52
2021/01/09 00:50:26;;;;;;;18.10;14.27;;;1.20;99.90;;;;;;5034122;28;20602;-46
2021/01/09 00:52:52;;;;;;;21.17;14.90;;;1.30;99.90;;;;;;5034890;28;20187;-45
2021/01/09 00:55:18;;;;;;;19.07;15.50;;;1.30;99.90;;;;;;5035435;28;20183;-47
2021/01/09 00:57:43;;;;;;;17.37;14.23;;;1.30;99.90;;;;;;5033662;28;20184;-47
2021/01/09 01:00:09;;;;;;;18.70;15.40;;;1.30;99.90;;;;;;5032023;28;20561;-47
2021/01/09 01:02:35;;;;;;;18.90;15.83;;;1.30;99.90;;;;;;5035262;28;20225;-48
2021/01/09 01:05:00;;;;;;;20.87;16.17;;;1.30;99.90;;;;;;5035061;28;20434;-48
2021/01/09 01:07:26;;;;;;;18.93;15.43;;;1.30;99.90;;;;;;5035344;28;20171;-49
2021/01/09 01:09:51;;;;;;;19.87;15.67;;;1.30;99.90;;;;;;5035389;28;20215;-46
2021/01/09 01:12:17;;;;;;;18.90;15.27;;;1.30;99.90;;;;;;5034010;28;20184;-50
2021/01/09 01:14:42;;;;;;;16.93;14.27;;;1.30;99.90;;;;;;5034335;28;20190;-46
2021/01/09 01:17:08;;;;;;;19.57;15.97;;;1.30;99.90;;;;;;5034498;28;20175;-49
2021/01/09 01:19:33;;;;;;;20.37;16.30;;;1.30;99.90;;;;;;5035337;28;20219;-50
2021/01/09 01:21:59;;;;;;;18.93;15.43;;;1.30;99.90;;;;;;5035959;28;20200;-50
2021/01/09 01:24:24;;;;;;;19.87;15.50;;;1.40;99.90;;;;;;5035158;28;20183;-45
2021/01/09 01:26:50;;;;;;;19.00;15.60;;;1.40;99.90;;;;;;5035366;28;20222;-45
2021/01/09 01:29:16;;;;;;;19.70;15.53;;;1.50;99.90;;;;;;5035494;28;20582;-49
2021/01/09 01:31:41;;;;;;;18.30;14.27;;;1.50;99.90;;;;;;5034795;28;20168;-49
2021/01/09 01:34:07;;;;;;;19.03;15.87;;;1.60;99.90;;;;;;5035009;28;20180;-45
2021/01/09 01:36:32;;;;;;;17.37;14.10;;;1.60;99.90;;;;;;5035155;28;20183;-53
2021/01/09 01:38:58;;;;;;;18.73;15.77;;;1.60;99.90;;;;;;5033605;28;20239;-50
2021/01/09 01:41:23;;;;;;;20.90;16.00;;;1.60;99.90;;;;;;5035073;28;20199;-46
2021/01/09 01:43:49;;;;;;;19.73;16.17;;;1.60;99.90;;;;;;5034565;28;20176;-47
2021/01/09 01:46:15;;;;;;;21.43;16.77;;;1.70;99.90;;;;;;5034603;28;20195;-50
2021/01/09 01:48:42;;;;;;;19.00;15.40;;;1.70;99.90;;;;;;5034916;28;20215;-48
2021/01/09 01:51:09;;;;;;;18.57;15.23;;;1.70;99.90;;;;;;5034644;28;20975;-48
2021/01/09 01:53:35;;;;;;;19.63;15.80;;;1.60;99.90;;;;;;5034667;28;20501;-50
2021/01/09 01:56:00;;;;;;;18.23;15.33;;;1.60;99.90;;;;;;5034531;28;20550;-45
2021/01/09 01:58:26;;;;;;;19.97;16.53;;;1.70;99.90;;;;;;5034602;28;20191;-47
2021/01/09 02:00:52;;;;;;;21.20;17.17;;;1.70;99.90;;;;;;5034697;28;20188;-46
2021/01/09 02:03:19;;;;;;;21.07;16.97;;;1.70;99.90;;;;;;5034339;28;20188;-45
2021/01/09 02:06:05;;;;;;;21.23;16.80;;;1.70;99.90;;;;;;5032617;28;20176;-49
2021/01/09 02:08:38;;;;;;;18.07;14.90;;;1.60;99.90;;;;;;5019815;28;20534;-47
2021/01/09 02:11:13;;;;;;;21.40;17.73;;;1.40;99.90;;;;;;5027009;28;20427;-50
2021/01/09 02:13:49;;;;;;;23.87;16.13;;;1.40;99.90;;;;;;5033805;28;20422;-52
2021/01/09 02:16:16;;;;;;;18.53;15.07;;;1.40;99.90;;;;;;5032102;28;20422;-46
2021/01/09 02:18:43;;;;;;;20.33;16.70;;;1.50;99.90;;;;;;5030160;28;20438;-48
2021/01/09 02:21:20;;;;;;;20.17;16.20;;;1.50;99.90;;;;;;5028400;28;20549;-49
2021/01/09 02:23:46;;;;;;;21.83;16.97;;;1.50;99.90;;;;;;5013661;28;20427;-49
2021/01/09 02:26:11;;;;;;;22.43;17.20;;;1.50;99.90;;;;;;5015994;28;20425;-46
2021/01/09 02:28:37;;;;;;;20.97;17.17;;;1.40;99.90;;;;;;5034290;28;20615;-47
2021/01/09 02:31:04;;;;;;;21.60;16.57;;;1.50;99.90;;;;;;5024528;28;20223;-50
2021/01/09 02:33:32;;;;;;;19.57;16.33;;;1.50;99.90;;;;;;5014326;28;20172;-45
2021/01/09 02:35:59;;;;;;;20.70;16.70;;;1.50;99.90;;;;;;5020907;28;20994;-46
2021/01/09 02:38:25;;;;;;;21.93;16.90;;;1.50;99.90;;;;;;5029290;28;20951;-48
2021/01/09 02:40:50;;;;;;;20.63;16.63;;;1.60;99.90;;;;;;5033429;28;20446;-47
2021/01/09 02:43:16;;;;;;;22.93;17.43;;;1.60;99.90;;;;;;5031033;28;20578;-45
2021/01/09 02:45:42;;;;;;;23.57;18.20;;;1.70;99.90;;;;;;5033373;28;20187;-46
2021/01/09 02:48:08;;;;;;;22.77;17.20;;;1.70;99.90;;;;;;5024633;28;20203;-45
2021/01/09 02:50:34;;;;;;;21.40;17.13;;;1.70;99.90;;;;;;5031468;28;20431;-51
2021/01/09 02:53:00;;;;;;;21.07;16.77;;;1.70;99.90;;;;;;5020848;28;20205;-50
2021/01/09 02:55:25;;;;;;;23.97;19.07;;;1.70;99.90;;;;;;5030993;28;20188;-49
2021/01/09 02:57:51;;;;;;;23.07;17.70;;;1.80;99.90;;;;;;5023964;28;20219;-48
2021/01/09 03:00:18;;;;;;;23.93;19.93;;;1.80;99.90;;;;;;5022213;28;20188;-45
2021/01/09 03:02:44;;;;;;;21.43;17.83;;;1.80;99.90;;;;;;5031802;28;20579;-47
2021/01/09 03:05:10;;;;;;;21.10;17.23;;;1.80;99.90;;;;;;5031420;28;20810;-46
2021/01/09 03:07:35;;;;;;;23.90;18.03;;;1.80;99.90;;;;;;5031076;28;20175;-48
2021/01/09 03:10:01;;;;;;;22.30;17.33;;;1.70;99.90;;;;;;5024389;28;20212;-49
2021/01/09 03:12:26;;;;;;;20.03;15.60;;;1.70;99.90;;;;;;5026953;28;20189;-48
2021/01/09 03:14:52;;;;;;;23.43;16.80;;;1.80;99.90;;;;;;5018001;28;20180;-50
2021/01/09 03:17:17;;;;;;;21.33;17.20;;;1.80;99.90;;;;;;5013818;28;20263;-48
2021/01/09 03:19:43;;;;;;;21.07;16.60;;;1.80;99.90;;;;;;5021426;28;20654;-50
2021/01/09 03:22:09;;;;;;;23.33;17.23;;;1.90;99.90;;;;;;5032738;28;20203;-53
2021/01/09 03:24:34;;;;;;;20.70;16.57;;;1.90;99.90;;;;;;5023964;28;20494;-45
2021/01/09 03:27:00;;;;;;;22.30;16.80;;;2.00;99.90;;;;;;5024169;28;20532;-48
2021/01/09 03:29:25;;;;;;;19.57;15.63;;;2.20;99.90;;;;;;5033205;28;20200;-46
2021/01/09 03:31:51;;;;;;;21.73;17.07;;;2.30;99.90;;;;;;5028634;28;20187;-46
2021/01/09 03:34:16;;;;;;;21.00;17.27;;;2.40;99.90;;;;;;5032999;28;20195;-47
2021/01/09 03:36:42;;;;;;;20.23;15.90;;;2.40;99.90;;;;;;5036547;28;20176;-51
2021/01/09 03:39:07;;;;;;;20.30;16.77;;;2.40;99.90;;;;;;5037350;28;20210;-45
2021/01/09 03:41:33;;;;;;;21.20;16.30;;;2.40;99.90;;;;;;5037515;28;20211;-49
2021/01/09 03:43:58;;;;;;;22.30;17.13;;;2.40;99.90;;;;;;5036782;28;20179;-47
2021/01/09 03:46:24;;;;;;;21.40;16.53;;;2.30;99.90;;;;;;5036451;28;20178;-45
2021/01/09 03:48:49;;;;;;;24.57;18.33;;;2.20;99.90;;;;;;5037021;28;20199;-50
2021/01/09 03:51:15;;;;;;;22.20;17.43;;;2.10;99.90;;;;;;5037242;28;20186;-47
2021/01/09 03:53:40;;;;;;;20.23;16.50;;;2.00;99.90;;;;;;5037197;28;20179;-46
2021/01/09 03:56:06;;;;;;;27.27;21.13;;;2.10;99.90;;;;;;5036997;28;20176;-49
2021/01/09 03:58:32;;;;;;;24.37;18.53;;;2.00;99.90;;;;;;5036895;28;20299;-45
2021/01/09 04:00:57;;;;;;;31.40;22.43;;;1.90;99.90;;;;;;5037069;28;20295;-45
2021/01/09 04:03:23;;;;;;;23.40;19.47;;;1.80;99.90;;;;;;5035533;28;20188;-53
2021/01/09 04:05:48;;;;;;;32.20;23.43;;;1.80;99.90;;;;;;5017242;28;20185;-46
2021/01/09 04:08:14;;;;;;;27.90;21.50;;;1.70;99.90;;;;;;5022149;28;20659;-48
2021/01/09 04:10:39;;;;;;;28.30;21.73;;;1.80;99.90;;;;;;5036467;28;20190;-47
2021/01/09 04:13:05;;;;;;;24.33;19.43;;;1.90;99.90;;;;;;5033066;28;20173;-46
2021/01/09 04:15:30;;;;;;;26.50;20.23;;;2.00;99.90;;;;;;5016684;28;20664;-49
2021/01/09 04:17:56;;;;;;;25.27;19.43;;;2.00;99.90;;;;;;5019296;28;20207;-46
2021/01/09 04:20:21;;;;;;;26.60;20.77;;;2.10;99.90;;;;;;5036514;28;20203;-46
2021/01/09 04:22:47;;;;;;;26.10;20.03;;;2.10;99.90;;;;;;5035716;28;20570;-49
2021/01/09 04:25:12;;;;;;;30.00;22.97;;;2.00;99.90;;;;;;5024226;28;20725;-46
2021/01/09 04:27:38;;;;;;;31.03;23.00;;;1.90;99.90;;;;;;5022632;28;20703;-47
2021/01/09 04:30:04;;;;;;;27.43;20.53;;;1.90;99.90;;;;;;5036840;28;20884;-51
2021/01/09 04:32:30;;;;;;;27.77;20.87;;;1.80;99.90;;;;;;5035896;28;20676;-49
2021/01/09 04:34:57;;;;;;;31.83;23.47;;;1.60;99.90;;;;;;5025096;28;20478;-46
2021/01/09 04:37:22;;;;;;;31.17;22.90;;;1.60;99.90;;;;;;5023409;28;20226;-50
2021/01/09 04:39:48;;;;;;;24.40;19.43;;;1.60;99.90;;;;;;5036374;28;20441;-46
2021/01/09 04:42:14;;;;;;;29.03;22.67;;;1.60;99.90;;;;;;5031978;28;20227;-48
2021/01/09 04:44:40;;;;;;;32.47;22.90;;;1.60;99.90;;;;;;5016185;28;20181;-49
2021/01/09 04:47:07;;;;;;;28.10;21.23;;;1.60;99.90;;;;;;5019108;28;20171;-48
2021/01/09 04:49:32;;;;;;;28.10;20.80;;;1.60;99.90;;;;;;5035330;28;20207;-45
2021/01/09 04:51:58;;;;;;;33.10;22.97;;;1.60;99.90;;;;;;5032249;28;20426;-46
2021/01/09 04:54:25;;;;;;;25.47;20.03;;;1.60;99.90;;;;;;5033226;28;20188;-49
2021/01/09 04:56:52;;;;;;;30.33;21.67;;;1.70;99.90;;;;;;5033572;28;20187;-49
2021/01/09 04:59:19;;;;;;;28.07;21.47;;;1.70;99.90;;;;;;5034771;28;20482;-52
2021/01/09 05:01:46;;;;;;;25.30;19.27;;;1.70;99.90;;;;;;5035495;28;20459;-51
2021/01/09 05:04:13;;;;;;;28.33;21.57;;;1.70;99.90;;;;;;5028819;28;20474;-49
2021/01/09 05:06:40;;;;;;;26.17;20.50;;;1.80;99.90;;;;;;5028049;28;20426;-49
2021/01/09 05:09:06;;;;;;;24.83;19.27;;;1.80;99.90;;;;;;5034488;28;20439;-51
2021/01/09 05:11:33;;;;;;;24.43;19.40;;;2.00;99.90;;;;;;5035202;28;20949;-46
2021/01/09 05:13:59;;;;;;;25.20;20.03;;;2.10;99.90;;;;;;5031708;28;20431;-49
2021/01/09 05:16:25;;;;;;;25.43;20.50;;;2.30;99.90;;;;;;5015385;28;20414;-51
2021/01/09 05:18:51;;;;;;;24.57;19.13;;;2.40;99.90;;;;;;5016873;28;20204;-49
2021/01/09 05:21:17;;;;;;;28.87;21.70;;;2.40;99.90;;;;;;5035493;28;20504;-47
2021/01/09 05:24:00;;;;;;;30.97;22.93;;;2.20;99.90;;;;;;5015754;28;20190;-49
2021/01/09 05:26:26;;;;;;;28.27;21.73;;;1.90;99.90;;;;;;5035455;28;20793;-45
2021/01/09 05:28:57;;;;;;;31.87;23.00;;;1.80;99.90;;;;;;5035014;28;20443;-46
2021/01/09 05:31:24;;;;;;;33.13;24.20;;;1.70;99.90;;;;;;5035312;28;20744;-45
2021/01/09 05:33:51;;;;;;;32.77;24.37;;;1.60;99.90;;;;;;5019836;28;20761;-47
2021/01/09 05:36:18;;;;;;;33.57;23.87;;;1.40;99.90;;;;;;5022604;28;20423;-49
2021/01/09 05:38:45;;;;;;;26.77;21.13;;;1.30;99.90;;;;;;5035178;28;20763;-46
2021/01/09 05:41:15;;;;;;;29.17;21.30;;;1.30;99.90;;;;;;5034282;28;20457;-46
2021/01/09 05:43:42;;;;;;;28.80;21.07;;;1.30;99.90;;;;;;5035387;28;20951;-46
2021/01/09 05:46:08;;;;;;;30.47;22.07;;;1.40;99.90;;;;;;5019366;28;20424;-53
2021/01/09 05:48:35;;;;;;;34.03;25.63;;;1.40;99.90;;;;;;5015243;28;20434;-51
2021/01/09 05:51:06;;;;;;;30.93;22.27;;;1.50;99.90;;;;;;5029123;28;20180;-51
2021/01/09 05:53:39;;;;;;;35.60;24.53;;;1.50;99.90;;;;;;5034856;28;20879;-47
2021/01/09 05:56:05;;;;;;;30.03;21.27;;;1.50;99.90;;;;;;5020862;28;20430;-46
2021/01/09 05:58:32;;;;;;;29.10;22.60;;;1.60;99.90;;;;;;5017371;28;20439;-49
2021/01/09 06:01:00;;;;;;;27.73;21.13;;;1.60;99.90;;;;;;5023092;28;20297;-46
2021/01/09 06:03:46;;;;;;;32.23;24.13;;;1.70;99.90;;;;;;5030481;28;20444;-49
2021/01/09 06:06:39;;;;;;;31.30;23.37;;;1.70;99.90;;;;;;5034325;28;20429;-48
2021/01/09 06:09:07;;;;;;;31.93;23.80;;;1.60;99.90;;;;;;5032003;28;20965;-45
2021/01/09 06:11:42;;;;;;;28.90;22.53;;;1.90;99.90;;;;;;5024460;28;20520;-50
2021/01/09 06:14:09;;;;;;;31.63;23.23;;;1.50;99.90;;;;;;5021521;28;20406;-45
2021/01/09 06:16:39;;;;;;;29.70;21.90;;;1.40;99.90;;;;;;5032694;28;20778;-46
2021/01/09 06:19:06;;;;;;;30.60;22.90;;;1.40;99.90;;;;;;5034348;28;20418;-47
2021/01/09 06:21:34;;;;;;;32.60;23.67;;;1.30;99.90;;;;;;5025296;28;20455;-46
2021/01/09 06:24:01;;;;;;;35.03;24.03;;;1.30;99.90;;;;;;5014924;28;20403;-49
2021/01/09 06:26:29;;;;;;;29.63;22.60;;;1.30;99.90;;;;;;5022495;28;20782;-44
2021/01/09 06:29:04;;;;;;;31.07;22.63;;;1.30;99.90;;;;;;5033343;28;20443;-47
2021/01/09 06:31:30;;;;;;;27.97;20.63;;;1.30;99.90;;;;;;5027258;28;20434;-44
2021/01/09 06:34:00;;;;;;;27.63;20.67;;;1.40;99.90;;;;;;5028760;28;20437;-49
2021/01/09 06:36:26;;;;;;;29.67;21.73;;;1.50;99.90;;;;;;5014703;28;20435;-48
2021/01/09 06:38:55;;;;;;;26.17;19.87;;;1.50;99.90;;;;;;5016857;28;20439;-46
2021/01/09 06:41:24;;;;;;;30.27;22.53;;;1.50;99.90;;;;;;5020125;28;20977;-47
2021/01/09 06:43:52;;;;;;;31.27;22.73;;;1.50;99.90;;;;;;5030966;28;20438;-45
2021/01/09 06:46:29;;;;;;;33.27;22.77;;;1.50;99.90;;;;;;5016792;28;20425;-48
2021/01/09 06:48:55;;;;;;;32.40;25.63;;;1.50;99.90;;;;;;5025520;28;20411;-51
2021/01/09 06:51:47;;;;;;;29.10;22.10;;;1.60;99.90;;;;;;5031519;28;20262;-44
2021/01/09 06:54:15;;;;;;;31.20;21.80;;;1.50;99.90;;;;;;5030301;28;20223;-47
2021/01/09 06:56:43;;;;;;;27.00;21.13;;;1.60;99.90;;;;;;5031497;28;20433;-48
2021/01/09 06:59:09;;;;;;;28.23;20.80;;;1.60;99.90;;;;;;5033479;28;20854;-47
2021/01/09 07:01:38;;;;;;;29.00;22.60;;;1.70;99.90;;;;;;5033699;28;20457;-46
2021/01/09 07:04:04;;;;;;;35.37;25.43;;;1.70;99.90;;;;;;5026013;28;20202;-51
2021/01/09 07:06:53;;;;;;;27.60;20.63;;;1.70;99.90;;;;;;5027039;28;20437;-46
2021/01/09 07:09:28;;;;;;;30.90;26.80;;;1.80;99.90;;;;;;5014619;28;20427;-49
2021/01/09 07:11:55;;;;;;;31.40;23.90;;;1.90;99.90;;;;;;5027204;28;20187;-48
2021/01/09 07:14:21;;;;;;;30.40;23.20;;;1.90;99.90;;;;;;5029202;28;20431;-46
2021/01/09 07:16:48;;;;;;;32.30;24.30;;;1.90;99.90;;;;;;5032646;28;20759;-49
2021/01/09 07:19:14;;;;;;;28.13;22.10;;;1.80;99.90;;;;;;5032944;28;20826;-52
2021/01/09 07:21:40;;;;;;;32.57;23.70;;;1.70;99.90;;;;;;5032406;28;20458;-49
2021/01/09 07:24:09;;;;;;;30.00;23.47;;;1.70;99.90;;;;;;5031076;28;20403;-49
2021/01/09 07:26:39;;;;;;;28.07;22.20;;;1.80;99.90;;;;;;5032901;28;20536;-53
2021/01/09 07:29:05;;;;;;;30.20;23.67;;;1.80;99.90;;;;;;5033007;28;20952;-51
2021/01/09 07:31:31;;;;;;;32.10;22.30;;;1.80;99.90;;;;;;5033574;28;20402;-46
2021/01/09 07:33:58;;;;;;;34.67;25.17;;;1.80;99.90;;;;;;5033563;28;20187;-51
2021/01/09 07:36:28;;;;;;;37.47;25.73;;;1.80;99.90;;;;;;5029694;28;20446;-48
2021/01/09 07:39:04;;;;;;;33.50;24.57;;;1.60;99.90;;;;;;5031367;28;20522;-50
2021/01/09 07:41:31;;;;;;;36.37;24.97;;;1.60;99.90;;;;;;5031068;28;20979;-51
2021/01/09 07:44:10;;;;;;;34.10;24.53;;;1.50;99.90;;;;;;5032514;28;20411;-47
2021/01/09 07:46:36;;;;;;;32.60;23.70;;;1.40;99.90;;;;;;5031289;28;20476;-48
2021/01/09 07:49:03;;;;;;;31.70;23.77;;;1.30;99.90;;;;;;5031915;28;20418;-47
2021/01/09 07:51:48;;;;;;;30.17;22.93;;;1.30;99.90;;;;;;5032364;28;20420;-48
2021/01/09 07:54:34;;;;;;;34.07;25.10;;;1.40;99.90;;;;;;5032253;28;20794;-50
2021/01/09 07:57:00;;;;;;;34.63;24.03;;;1.40;99.90;;;;;;5032166;28;20464;-51
2021/01/09 07:59:25;;;;;;;53.00;40.87;;;1.50;99.90;;;;;;5032421;28;20450;-50
2021/01/09 08:01:51;;;;;;;35.27;26.30;;;1.50;99.90;;;;;;5030956;28;20717;-52
2021/01/09 08:04:16;;;;;;;33.67;24.50;;;1.50;99.90;;;;;;5031086;28;20257;-51
2021/01/09 08:06:42;;;;;;;33.43;23.87;;;1.50;99.90;;;;;;5031213;28;20187;-52
2021/01/09 08:09:09;;;;;;;35.43;25.20;;;1.50;99.90;;;;;;5032377;28;20196;-50
2021/01/09 08:11:45;;;;;;;29.47;22.10;;;1.50;99.90;;;;;;5030035;28;20191;-51
2021/01/09 08:14:14;;;;;;;28.23;21.13;;;1.50;99.90;;;;;;5029955;28;20941;-50
2021/01/09 08:16:40;;;;;;;30.47;22.60;;;1.60;99.90;;;;;;5032285;28;20536;-49
2021/01/09 08:19:18;;;;;;;27.33;20.83;;;1.70;99.90;;;;;;5027569;28;20442;-49
2021/01/09 08:21:47;;;;;;;27.90;21.50;;;1.90;99.90;;;;;;5031930;28;20509;-48
2021/01/09 08:24:26;;;;;;;25.60;20.47;;;2.00;99.90;;;;;;5036021;28;20476;-48
2021/01/09 08:26:56;;;;;;;27.47;21.37;;;2.10;99.90;;;;;;5036257;28;20420;-48
2021/01/09 08:29:27;;;;;;;28.10;21.60;;;2.20;99.90;;;;;;5033115;28;20462;-47
2021/01/09 08:31:54;;;;;;;28.33;21.43;;;2.30;99.90;;;;;;5035693;28;20810;-48
2021/01/09 08:34:24;;;;;;;29.50;22.37;;;2.30;99.90;;;;;;5035353;28;20464;-47
2021/01/09 08:36:54;;;;;;;26.30;20.57;;;2.30;99.90;;;;;;5036110;28;20509;-48
2021/01/09 08:39:19;;;;;;;27.60;21.40;;;2.30;99.90;;;;;;5002801;28;20513;-47
2021/01/09 08:41:45;;;;;;;27.00;21.40;;;2.20;99.90;;;;;;5032472;28;20576;-46
2021/01/09 08:44:13;;;;;;;29.10;22.93;;;2.30;99.90;;;;;;5034989;28;20302;-50
2021/01/09 08:46:43;;;;;;;29.43;22.80;;;2.30;99.90;;;;;;5034645;28;20187;-48
2021/01/09 08:49:23;;;;;;;31.73;22.23;;;2.30;99.90;;;;;;5035883;28;20192;-47
2021/01/09 08:51:54;;;;;;;33.03;24.50;;;2.20;99.90;;;;;;5034103;28;20506;-48
2021/01/09 08:54:21;;;;;;;31.50;23.40;;;2.10;99.90;;;;;;5035878;28;20835;-52
2021/01/09 08:56:47;;;;;;;29.60;22.07;;;2.20;99.90;;;;;;5030208;28;20476;-48
2021/01/09 08:59:13;;;;;;;26.03;20.20;;;2.30;99.90;;;;;;5033361;28;20500;-48
2021/01/09 09:01:43;;;;;;;26.87;21.00;;;2.20;99.90;;;;;;5033951;28;20523;-50
2021/01/09 09:04:10;;;;;;;27.73;21.13;;;2.30;99.90;;;;;;5034495;28;20438;-48
2021/01/09 09:06:38;;;;;;;28.73;21.67;;;2.20;99.90;;;;;;5036222;28;20514;-48
2021/01/09 09:09:04;;;;;;;28.87;21.60;;;2.20;99.90;;;;;;5033943;28;20454;-53
2021/01/09 09:11:30;;;;;;;27.60;21.67;;;2.10;99.90;;;;;;5036042;28;20426;-52
2021/01/09 09:14:03;;;;;;;30.87;23.17;;;2.10;99.90;;;;;;5034404;28;20410;-49
2021/01/09 09:16:28;;;;;;;32.37;24.47;;;2.00;99.90;;;;;;5036137;28;20182;-54
2021/01/09 09:18:54;;;;;;;32.30;23.03;;;2.00;99.90;;;;;;5032883;28;20933;-49
2021/01/09 09:21:19;;;;;;;27.33;21.57;;;2.30;99.90;;;;;;5034673;28;20769;-49
2021/01/09 09:23:58;;;;;;;29.87;22.20;;;2.10;99.90;;;;;;5036434;28;20192;-49
2021/01/09 09:26:34;;;;;;;28.43;22.20;;;2.00;99.90;;;;;;5034758;28;20179;-50
2021/01/09 09:29:00;;;;;;;26.73;20.70;;;2.10;99.90;;;;;;5033550;28;20799;-49
2021/01/09 09:31:40;;;;;;;28.67;22.43;;;2.10;99.90;;;;;;5035467;28;20945;-49
2021/01/09 09:34:15;;;;;;;29.50;22.63;;;2.20;99.90;;;;;;5036051;28;20266;-55
2021/01/09 09:36:59;;;;;;;28.30;22.10;;;2.10;99.90;;;;;;5034881;28;20186;-48
2021/01/09 09:39:26;;;;;;;26.93;21.73;;;2.10;99.90;;;;;;5032909;28;20210;-51
2021/01/09 09:41:56;;;;;;;33.23;25.13;;;2.10;99.90;;;;;;5033917;28;20510;-50
2021/01/09 09:44:39;;;;;;;27.10;21.13;;;2.10;99.90;;;;;;5034512;28;20453;-49
2021/01/09 09:47:08;;;;;;;29.23;23.03;;;2.20;99.90;;;;;;5033332;28;20636;-49
2021/01/09 09:49:37;;;;;;;29.00;23.23;;;2.30;99.90;;;;;;5031817;28;20746;-51
2021/01/09 09:52:20;;;;;;;32.40;23.53;;;2.30;99.90;;;;;;5034883;28;20202;-49
2021/01/09 09:54:46;;;;;;;31.17;23.10;;;2.40;99.90;;;;;;5030577;28;20412;-48
2021/01/09 09:57:22;;;;;;;28.70;22.30;;;2.40;99.90;;;;;;5019012;28;20433;-48
2021/01/09 10:00:07;;;;;;;32.17;24.90;;;2.40;99.90;;;;;;5032613;28;20281;-48
2021/01/09 10:02:32;;;;;;;29.63;23.50;;;2.40;99.90;;;;;;5034565;28;20422;-49
2021/01/09 10:04:58;;;;;;;30.37;23.83;;;2.40;99.90;;;;;;5034651;28;20184;-49
2021/01/09 10:07:24;;;;;;;29.07;23.03;;;2.50;99.90;;;;;;5034840;28;20585;-51
2021/01/09 10:09:50;;;;;;;28.63;22.40;;;2.70;99.90;;;;;;5030477;28;20223;-49
2021/01/09 10:12:16;;;;;;;26.97;22.20;;;2.70;99.90;;;;;;5034090;28;20265;-51
2021/01/09 10:14:42;;;;;;;29.93;22.73;;;2.70;99.90;;;;;;5031391;28;20639;-52
2021/01/09 10:17:14;;;;;;;29.97;24.40;;;2.70;99.90;;;;;;5032701;28;20280;-48
2021/01/09 10:19:39;;;;;;;34.30;24.97;;;2.80;99.90;;;;;;5031554;28;20250;-52
2021/01/09 10:22:05;;;;;;;27.27;22.10;;;2.90;99.90;;;;;;5031934;28;20250;-50
2021/01/09 10:24:30;;;;;;;27.87;22.30;;;3.00;99.90;;;;;;5031258;28;20187;-49
2021/01/09 10:26:56;;;;;;;30.47;23.00;;;3.10;99.90;;;;;;5038135;28;20191;-50
2021/01/09 10:29:21;;;;;;;25.77;20.77;;;3.20;99.90;;;;;;5029658;28;20199;-51
2021/01/09 10:31:47;;;;;;;27.33;20.90;;;3.30;99.90;;;;;;5032320;28;20651;-51
2021/01/09 10:34:12;;;;;;;26.80;22.00;;;3.30;99.90;;;;;;5034204;28;20226;-49
2021/01/09 10:36:39;;;;;;;24.57;20.03;;;3.30;99.90;;;;;;5031407;28;20237;-50
2021/01/09 10:39:07;;;;;;;27.23;21.20;;;3.20;99.90;;;;;;5031952;28;20204;-51
2021/01/09 10:41:34;;;;;;;27.50;21.33;;;3.10;99.90;;;;;;5030882;28;20215;-54
2021/01/09 10:43:59;;;;;;;26.83;21.37;;;3.00;99.90;;;;;;5033983;28;20718;-48
2021/01/09 10:46:26;;;;;;;27.43;20.63;;;2.90;99.90;;;;;;5034475;28;20200;-48
2021/01/09 10:48:52;;;;;;;24.77;19.93;;;2.90;99.90;;;;;;5031902;28;20303;-49
2021/01/09 10:51:20;;;;;;;27.80;20.73;;;3.00;99.90;;;;;;5035343;28;20628;-48
2021/01/09 10:53:46;;;;;;;27.27;20.90;;;3.00;99.90;;;;;;5034373;28;20194;-48
2021/01/09 10:56:11;;;;;;;27.77;21.03;;;2.90;99.90;;;;;;5034580;28;20172;-50
2021/01/09 10:58:38;;;;;;;28.43;21.53;;;3.00;99.90;;;;;;5032254;28;20684;-55
2021/01/09 11:01:05;;;;;;;26.63;21.17;;;3.00;99.90;;;;;;5033389;28;20644;-48
2021/01/09 11:03:30;;;;;;;26.90;20.97;;;3.10;99.90;;;;;;5032223;28;20266;-48
2021/01/09 11:05:57;;;;;;;27.57;22.00;;;3.10;99.90;;;;;;5033701;28;20203;-49
2021/01/09 11:08:22;;;;;;;27.23;21.00;;;3.20;99.90;;;;;;5032414;28;20208;-54
2021/01/09 11:10:48;;;;;;;27.53;21.47;;;3.30;99.90;;;;;;5033631;28;20241;-53
2021/01/09 11:13:14;;;;;;;27.53;21.37;;;3.40;99.90;;;;;;5034332;28;20693;-48
2021/01/09 11:15:46;;;;;;;29.00;23.20;;;3.50;99.90;;;;;;5033570;28;20171;-52
2021/01/09 11:18:12;;;;;;;27.63;22.53;;;3.60;99.90;;;;;;5031166;28;20242;-49
2021/01/09 11:20:38;;;;;;;32.67;25.00;;;3.60;99.90;;;;;;5032832;28;20246;-53
2021/01/09 11:23:04;;;;;;;27.20;21.93;;;3.50;99.90;;;;;;5033570;28;20179;-53
2021/01/09 11:25:29;;;;;;;28.83;23.30;;;3.50;99.90;;;;;;5033534;28;20221;-53
2021/01/09 11:27:55;;;;;;;29.17;22.33;;;3.60;99.90;;;;;;5032836;28;20214;-56
2021/01/09 11:30:21;;;;;;;26.90;21.73;;;3.70;99.90;;;;;;5030631;28;20199;-52
2021/01/09 11:32:46;;;;;;;27.47;21.60;;;3.70;99.90;;;;;;5014868;28;20183;-50
2021/01/09 11:35:12;;;;;;;30.00;22.60;;;3.70;99.90;;;;;;5032303;28;20272;-49
2021/01/09 11:37:37;;;;;;;28.83;22.73;;;3.60;99.90;;;;;;5031223;28;20207;-50
2021/01/09 11:40:05;;;;;;;27.23;21.87;;;3.60;99.90;;;;;;5031394;28;20192;-49
2021/01/09 11:42:30;;;;;;;27.90;21.57;;;3.60;99.90;;;;;;5031259;28;20234;-49
2021/01/09 11:44:56;;;;;;;28.30;21.60;;;3.60;99.90;;;;;;5031758;28;20191;-49
2021/01/09 11:47:22;;;;;;;28.27;23.03;;;3.50;99.90;;;;;;5033878;28;20198;-54
2021/01/09 11:49:48;;;;;;;25.57;20.33;;;3.50;99.90;;;;;;5030653;28;20200;-50
2021/01/09 11:52:13;;;;;;;29.40;21.57;;;3.50;99.90;;;;;;5032605;28;20274;-48
2021/01/09 11:54:39;;;;;;;26.20;20.70;;;3.40;99.90;;;;;;5032003;28;20234;-51
2021/01/09 11:57:05;;;;;;;27.77;21.30;;;3.30;99.90;;;;;;5035037;28;20210;-55
2021/01/09 11:59:31;;;;;;;27.67;21.93;;;3.20;99.90;;;;;;5034802;28;20210;-49
2021/01/09 12:01:57;;;;;;;29.77;23.13;;;3.10;99.90;;;;;;5034102;28;20215;-51
2021/01/09 12:04:22;;;;;;;29.87;22.60;;;3.00;99.90;;;;;;5037727;28;20206;-53
2021/01/09 12:06:48;;;;;;;27.77;21.27;;;3.00;99.90;;;;;;5038095;28;20168;-53
2021/01/09 12:09:13;;;;;;;29.63;22.53;;;2.90;99.90;;;;;;5033721;28;20599;-49
2021/01/09 12:11:39;;;;;;;29.07;22.53;;;3.00;99.90;;;;;;5036648;28;20608;-49
2021/01/09 12:14:06;;;;;;;26.90;20.63;;;3.00;99.90;;;;;;5036329;28;20187;-48
2021/01/09 12:16:33;;;;;;;29.87;22.60;;;3.00;99.90;;;;;;5036116;28;20203;-48
2021/01/09 12:18:59;;;;;;;28.77;22.40;;;3.00;99.90;;;;;;5036183;28;20199;-49
2021/01/09 12:21:31;;;;;;;27.70;21.83;;;2.90;99.90;;;;;;5033704;28;20314;-48
2021/01/09 12:23:57;;;;;;;27.20;22.27;;;2.80;99.90;;;;;;5036836;28;20375;-49
2021/01/09 12:26:23;;;;;;;29.03;22.20;;;2.80;99.90;;;;;;5036916;28;20295;-48
2021/01/09 12:28:49;;;;;;;27.77;22.13;;;2.80;99.90;;;;;;5036816;28;20663;-50
2021/01/09 12:31:15;;;;;;;31.60;23.07;;;2.70;99.90;;;;;;5036558;28;20713;-49
2021/01/09 12:33:40;;;;;;;28.17;21.80;;;2.70;99.90;;;;;;5036302;28;20168;-51
2021/01/09 12:36:08;;;;;;;28.77;22.37;;;2.70;99.90;;;;;;5035984;28;20654;-50
2021/01/09 12:38:34;;;;;;;29.90;22.97;;;2.80;99.90;;;;;;5036479;28;20211;-48